createdAt,value
2023-04-16T00:00:28.315Z,7.90
2023-04-16T00:04:45.933Z,7.90
2023-04-16T00:09:03.111Z,7.80
2023-04-16T00:13:21.169Z,7.90
2023-04-16T00:17:38.300Z,8.00
2023-04-16T00:21:55.457Z,8.10
2023-04-16T00:26:12.531Z,8.30
2023-04-16T00:30:29.696Z,8.30
2023-04-16T00:34:46.875Z,8.20
2023-04-16T00:39:04.027Z,8.20
2023-04-16T00:43:23.034Z,8.10
2023-04-16T00:47:40.355Z,8.00
2023-04-16T00:51:57.609Z,7.90
2023-04-16T00:56:15.080Z,7.90
2023-04-16T01:00:32.347Z,7.90
2023-04-16T01:04:49.550Z,7.90
2023-04-16T01:09:06.863Z,7.90
2023-04-16T01:13:24.091Z,7.80
2023-04-16T01:17:41.303Z,7.80
2023-04-16T01:21:59.092Z,7.60
2023-04-16T01:26:16.317Z,7.50
2023-04-16T01:30:33.781Z,7.50
2023-04-16T01:34:50.940Z,7.50
2023-04-16T01:39:11.358Z,7.40
2023-04-16T01:43:28.479Z,7.40
2023-04-16T01:47:45.714Z,7.60
2023-04-16T01:52:02.842Z,7.60
2023-04-16T01:56:20.602Z,7.50
2023-04-16T02:00:37.799Z,7.50
2023-04-16T02:04:56.887Z,7.50
2023-04-16T02:09:14.112Z,7.50
2023-04-16T02:13:31.271Z,7.60
2023-04-16T02:17:48.970Z,7.50
2023-04-16T02:22:06.385Z,7.40
2023-04-16T02:26:23.514Z,7.50
2023-04-16T02:30:41.497Z,7.60
2023-04-16T02:34:58.632Z,7.70
2023-04-16T02:39:15.772Z,7.70
2023-04-16T02:43:32.870Z,7.80
2023-04-16T02:47:50.641Z,7.80
2023-04-16T02:52:07.847Z,7.80
2023-04-16T02:56:25.055Z,7.80
2023-04-16T03:00:42.387Z,7.90
2023-04-16T03:04:59.648Z,7.90
2023-04-16T03:09:17.249Z,8.00
2023-04-16T03:13:34.506Z,7.90
2023-04-16T03:17:51.645Z,7.80
2023-04-16T03:22:08.845Z,7.80
2023-04-16T03:26:25.919Z,7.90
2023-04-16T03:30:43.101Z,7.80
2023-04-16T03:35:00.570Z,7.80
2023-04-16T03:39:17.704Z,7.80
2023-04-16T03:43:34.809Z,7.70
2023-04-16T03:47:52.898Z,7.80
2023-04-16T03:52:11.273Z,7.90
2023-04-16T03:56:28.393Z,8.00
2023-04-16T04:00:45.897Z,8.00
2023-04-16T04:05:03.243Z,8.10
2023-04-16T04:09:20.602Z,8.20
2023-04-16T04:13:37.699Z,8.10
2023-04-16T04:17:54.852Z,8.10
2023-04-16T04:22:11.970Z,8.10
2023-04-16T04:26:29.110Z,8.10
2023-04-16T04:30:46.203Z,8.00
2023-04-16T04:35:04.079Z,8.10
2023-04-16T04:39:21.704Z,8.10
2023-04-16T04:43:38.837Z,8.10
2023-04-16T04:47:56.017Z,8.00
2023-04-16T04:52:13.720Z,8.10
2023-04-16T04:56:30.942Z,8.20
2023-04-16T05:00:48.112Z,8.30
2023-04-16T05:05:05.848Z,8.30
2023-04-16T05:09:23.112Z,8.30
2023-04-16T05:13:40.210Z,8.40
2023-04-16T05:17:57.401Z,8.30
2023-04-16T05:22:14.637Z,8.30
2023-04-16T05:26:31.829Z,8.40
2023-04-16T05:30:49.015Z,8.50
2023-04-16T05:35:06.837Z,8.40
2023-04-16T05:39:24.012Z,8.50
2023-04-16T05:43:41.224Z,8.60
2023-04-16T05:47:58.352Z,8.60
2023-04-16T05:52:15.583Z,8.50
2023-04-16T05:56:32.739Z,8.50
2023-04-16T06:00:49.930Z,8.50
2023-04-16T06:05:07.412Z,8.50
2023-04-16T06:09:24.918Z,8.60
2023-04-16T06:13:42.672Z,8.40
2023-04-16T06:18:01.027Z,8.40
2023-04-16T06:22:18.421Z,8.40
2023-04-16T06:26:35.634Z,8.50
2023-04-16T06:30:52.893Z,8.60
2023-04-16T06:35:10.190Z,8.70
2023-04-16T06:39:27.528Z,8.70
2023-04-16T06:43:44.736Z,8.80
2023-04-16T06:48:03.398Z,8.70
2023-04-16T06:52:20.794Z,9.00
2023-04-16T06:56:37.928Z,9.00
2023-04-16T07:00:55.286Z,9.20
2023-04-16T07:05:12.510Z,9.30
2023-04-16T07:09:29.673Z,9.30
2023-04-16T07:13:46.837Z,9.40
2023-04-16T07:18:04.222Z,9.40
2023-04-16T07:22:21.505Z,9.40
2023-04-16T07:26:38.636Z,9.50
2023-04-16T07:30:55.854Z,9.50
2023-04-16T07:35:13.047Z,9.70
2023-04-16T07:39:30.396Z,9.70
2023-04-16T07:43:47.526Z,9.60
2023-04-16T07:48:05.570Z,9.80
2023-04-16T07:52:22.798Z,9.50
2023-04-16T07:56:40.195Z,9.70
2023-04-16T08:00:57.893Z,9.90
2023-04-16T08:05:15.474Z,9.90
2023-04-16T08:09:32.893Z,9.90
2023-04-16T08:13:50.637Z,10.10
2023-04-16T08:18:12.783Z,10.20
2023-04-16T08:22:30.048Z,10.30
2023-04-16T08:26:47.236Z,10.50
2023-04-16T08:31:04.596Z,10.60
2023-04-16T08:35:21.774Z,10.50
2023-04-16T08:39:38.909Z,10.80
2023-04-16T08:43:57.672Z,10.80
2023-04-16T08:48:15.184Z,11.10
2023-04-16T08:52:32.710Z,11.30
2023-04-16T08:56:51.628Z,11.50
2023-04-16T09:01:09.825Z,11.70
2023-04-16T09:05:29.225Z,11.80
2023-04-16T09:09:48.830Z,11.80
2023-04-16T09:14:09.824Z,11.70
2023-04-16T09:18:28.122Z,12.20
2023-04-16T09:22:46.436Z,12.40
2023-04-16T09:27:04.142Z,12.70
2023-04-16T09:31:21.913Z,12.10
2023-04-16T09:36:06.103Z,11.90
2023-04-16T09:40:27.441Z,11.60
2023-04-16T09:44:44.807Z,11.30
2023-04-16T09:49:15.574Z,11.30
2023-04-16T09:53:33.244Z,11.30
2023-04-16T09:58:01.264Z,11.30
2023-04-16T10:02:18.636Z,11.30
2023-04-16T10:06:35.840Z,11.30
2023-04-16T10:10:54.224Z,11.30
2023-04-16T10:15:11.523Z,11.20
2023-04-16T10:19:28.957Z,11.40
2023-04-16T10:23:46.494Z,11.50
2023-04-16T10:28:03.973Z,11.60
2023-04-16T10:32:22.047Z,11.80
2023-04-16T10:36:40.125Z,12.20
2023-04-16T10:41:03.555Z,12.30
2023-04-16T10:45:25.959Z,11.90
2023-04-16T10:49:46.082Z,12.10
2023-04-16T10:54:24.352Z,12.30
2023-04-16T10:58:41.843Z,12.20
2023-04-16T11:02:59.101Z,12.10
2023-04-16T11:07:21.116Z,11.90
2023-04-16T11:11:39.528Z,12.10
2023-04-16T11:15:58.554Z,11.90
2023-04-16T11:20:21.431Z,11.60
2023-04-16T11:24:40.999Z,11.40
2023-04-16T11:29:00.155Z,11.40
2023-04-16T11:33:17.363Z,11.30
2023-04-16T11:37:36.960Z,11.20
2023-04-16T11:41:54.141Z,11.40
2023-04-16T11:46:24.093Z,11.30
2023-04-16T11:50:43.843Z,11.10
2023-04-16T11:55:06.297Z,11.10
2023-04-16T11:59:23.994Z,11.20
2023-04-16T12:03:46.125Z,11.00
2023-04-16T12:08:06.302Z,11.20
2023-04-16T12:12:32.298Z,11.30
2023-04-16T12:16:49.815Z,11.30
2023-04-16T12:21:07.885Z,11.40
2023-04-16T12:25:25.415Z,11.50
2023-04-16T12:29:42.553Z,11.70
2023-04-16T12:34:03.100Z,11.60
2023-04-16T12:38:22.805Z,11.70
2023-04-16T12:42:41.383Z,12.10
2023-04-16T12:46:58.532Z,12.30
2023-04-16T12:51:15.659Z,12.60
2023-04-16T12:55:32.849Z,12.70
2023-04-16T12:59:49.980Z,12.80
2023-04-16T13:04:07.732Z,12.60
2023-04-16T13:08:25.112Z,12.40
2023-04-16T13:12:42.213Z,12.20
2023-04-16T13:16:59.566Z,12.30
2023-04-16T13:21:16.720Z,12.60
2023-04-16T13:25:33.940Z,12.80
2023-04-16T13:29:51.080Z,12.70
2023-04-16T13:34:08.259Z,12.40
2023-04-16T13:38:25.584Z,12.40
2023-04-16T13:42:42.710Z,12.50
2023-04-16T13:47:00.279Z,12.60
2023-04-16T13:51:17.582Z,12.70
2023-04-16T13:55:35.633Z,12.40
2023-04-16T13:59:52.785Z,12.40
2023-04-16T14:04:09.970Z,12.20
2023-04-16T14:08:27.304Z,12.20
2023-04-16T14:12:45.600Z,11.60
2023-04-16T14:17:03.967Z,11.10
2023-04-16T14:21:21.151Z,10.80
2023-04-16T14:25:38.542Z,10.70
2023-04-16T14:29:55.674Z,10.80
2023-04-16T14:34:12.768Z,10.80
2023-04-16T14:38:30.251Z,10.60
2023-04-16T14:42:47.432Z,10.50
2023-04-16T14:47:04.659Z,10.30
2023-04-16T14:51:22.028Z,10.10
2023-04-16T14:55:39.438Z,10.00
2023-04-16T14:59:56.554Z,10.00
2023-04-16T15:04:13.855Z,10.00
2023-04-16T15:08:31.414Z,10.10
2023-04-16T15:12:48.506Z,10.10
2023-04-16T15:17:08.070Z,10.00
2023-04-16T15:21:27.884Z,9.90
2023-04-16T15:25:45.222Z,10.00
2023-04-16T15:30:02.551Z,10.00
2023-04-16T15:34:19.702Z,9.80
2023-04-16T15:38:36.903Z,9.90
2023-04-16T15:42:55.494Z,10.00
2023-04-16T15:47:12.717Z,9.90
2023-04-16T15:51:31.576Z,10.00
2023-04-16T15:55:52.434Z,9.90
2023-04-16T16:00:14.004Z,9.70
2023-04-16T16:04:31.331Z,9.70
2023-04-16T16:08:48.656Z,9.70
2023-04-16T16:13:07.958Z,9.70
2023-04-16T16:17:26.103Z,9.70
2023-04-16T16:21:43.237Z,9.70
2023-04-16T16:26:00.449Z,9.70
2023-04-16T16:30:17.800Z,9.70
2023-04-16T16:34:34.989Z,9.70
2023-04-16T16:38:52.444Z,9.70
2023-04-16T16:43:09.629Z,9.70
2023-04-16T16:47:28.273Z,9.70
2023-04-16T16:51:46.679Z,9.50
2023-04-16T16:56:03.990Z,9.60
2023-04-16T17:00:21.867Z,9.50
2023-04-16T17:04:39.158Z,9.60
2023-04-16T17:08:56.437Z,9.50
2023-04-16T17:13:15.132Z,9.60
2023-04-16T17:17:32.986Z,9.60
2023-04-16T17:21:51.260Z,9.70
2023-04-16T17:26:08.484Z,9.60
2023-04-16T17:30:27.716Z,9.60
2023-04-16T17:34:46.162Z,9.60
2023-04-16T17:39:03.313Z,9.50
2023-04-16T17:43:20.414Z,9.50
2023-04-16T17:47:38.691Z,9.50
2023-04-16T17:51:55.917Z,9.50
2023-04-16T17:56:13.575Z,9.40
2023-04-16T18:00:31.248Z,9.30
2023-04-16T18:04:51.509Z,9.40
2023-04-16T18:09:08.813Z,9.30
2023-04-16T18:13:25.953Z,9.30
2023-04-16T18:17:43.165Z,9.30
2023-04-16T18:22:00.663Z,9.40
2023-04-16T18:26:22.273Z,9.40
2023-04-16T18:30:40.683Z,9.40
2023-04-16T18:34:57.955Z,9.30
2023-04-16T18:39:15.204Z,9.40
2023-04-16T18:43:32.422Z,9.30
2023-04-16T18:47:50.855Z,9.50
2023-04-16T18:52:08.213Z,9.40
2023-04-16T18:56:25.464Z,9.40
2023-04-16T19:00:42.691Z,9.40
2023-04-16T19:04:59.904Z,9.30
2023-04-16T19:09:17.508Z,9.40
2023-04-16T19:13:34.802Z,9.40
2023-04-16T19:17:51.994Z,9.50
2023-04-16T19:22:09.315Z,9.50
2023-04-16T19:26:26.996Z,9.40
2023-04-16T19:30:46.554Z,9.50
2023-04-16T19:35:04.736Z,9.60
2023-04-16T19:39:21.918Z,9.60
2023-04-16T19:43:39.126Z,9.60
2023-04-16T19:47:56.333Z,9.60
2023-04-16T19:52:13.567Z,9.50
2023-04-16T19:56:30.766Z,9.60
2023-04-16T20:00:47.986Z,9.60
2023-04-16T20:05:05.379Z,9.50
2023-04-16T20:09:23.220Z,9.40
2023-04-16T20:13:40.359Z,9.40
2023-04-16T20:17:57.565Z,9.60
2023-04-16T20:22:14.953Z,9.60
2023-04-16T20:26:34.802Z,9.40
2023-04-16T20:30:52.509Z,9.50
2023-04-16T20:35:11.348Z,9.50
2023-04-16T20:39:28.892Z,9.50
2023-04-16T20:43:49.997Z,9.40
2023-04-16T20:48:07.761Z,9.50
2023-04-16T20:52:25.064Z,9.40
2023-04-16T20:56:43.225Z,9.40
2023-04-16T21:01:00.348Z,9.30
2023-04-16T21:05:19.021Z,9.30
2023-04-16T21:09:36.668Z,9.20
2023-04-16T21:13:53.769Z,9.20
2023-04-16T21:18:11.506Z,9.20
2023-04-16T21:22:28.656Z,9.10
2023-04-16T21:26:45.797Z,9.20
2023-04-16T21:31:03.033Z,9.20
2023-04-16T21:35:20.372Z,9.00
2023-04-16T21:39:37.531Z,9.00
2023-04-16T21:43:54.633Z,8.90
2023-04-16T21:48:12.104Z,8.90
2023-04-16T21:52:29.294Z,9.00
2023-04-16T21:56:46.420Z,8.90
2023-04-16T22:01:03.612Z,9.00
2023-04-16T22:05:22.353Z,8.90
2023-04-16T22:09:40.393Z,9.00
2023-04-16T22:13:57.859Z,9.00
2023-04-16T22:18:15.078Z,9.10
2023-04-16T22:22:32.266Z,9.10
2023-04-16T22:26:49.709Z,8.90
2023-04-16T22:31:07.088Z,9.00
2023-04-16T22:35:24.257Z,9.00
2023-04-16T22:39:41.479Z,9.00
2023-04-16T22:43:58.989Z,9.10
2023-04-16T22:48:21.975Z,9.20
2023-04-16T22:52:39.218Z,9.10
2023-04-16T22:56:56.925Z,9.10
2023-04-16T23:01:14.208Z,9.00
2023-04-16T23:05:31.354Z,9.00
2023-04-16T23:09:48.547Z,9.00
2023-04-16T23:14:05.695Z,9.00
2023-04-16T23:18:22.922Z,9.10
2023-04-16T23:22:40.713Z,9.10
2023-04-16T23:26:57.968Z,9.20
2023-04-16T23:31:15.528Z,9.00
2023-04-16T23:35:32.642Z,9.00
2023-04-16T23:39:49.756Z,9.10
2023-04-16T23:44:06.850Z,9.00
2023-04-16T23:48:23.982Z,9.00
2023-04-16T23:52:41.145Z,8.80
2023-04-16T23:56:58.273Z,8.70
